Time;durP1;ratioP1;P1;durP2;ratioP2;P2;SDS_P1;SDS_P2;PMS_P1;PMS_P2;Temp;Humidity;BMP_temperature;BMP_pressure;BME280_temperature;BME280_humidity;BME280_pressure;Samples;Min_cycle;Max_cycle;Signal;HPM_P1;HPM_P2
2023/10/05 00:02:08;;;;;;;11.82;5.30;;;;;;;11.86;100.00;101367.84;5068671;28;20063;-76
2023/10/05 00:04:44;;;;;;;13.07;5.00;;;;;;;11.89;100.00;101382.78;5076682;28;20060;-76
2023/10/05 00:07:21;;;;;;;12.20;5.40;;;;;;;11.87;100.00;101377.53;5078305;28;20044;-77
2023/10/05 00:09:52;;;;;;;13.13;5.32;;;;;;;11.90;100.00;101376.56;5059038;28;20083;-77
2023/10/05 00:12:22;;;;;;;14.68;5.70;;;;;;;11.86;100.00;101370.50;5070150;28;20052;-76
2023/10/05 00:15:04;;;;;;;;;;;;;;;11.79;100.00;101368.13;5076652;28;20044;-76
2023/10/05 00:17:36;;;;;;;12.95;5.22;;;;;;;11.82;100.00;101360.03;5076922;28;19924;-77
2023/10/05 00:20:09;;;;;;;14.63;5.05;;;;;;;11.86;100.00;101359.00;5093589;28;20138;-76
2023/10/05 00:22:40;;;;;;;14.73;5.80;;;;;;;11.79;100.00;101341.59;5071087;28;20131;-76
2023/10/05 00:25:09;;;;;;;;;;;;;;;11.87;100.00;101358.97;5075689;28;20404;-76
2023/10/05 00:27:38;;;;;;;16.30;6.00;;;;;;;11.84;100.00;101355.53;5094528;28;19954;-76
2023/10/05 00:30:12;;;;;;;11.70;5.40;;;;;;;11.78;100.00;101355.78;5090597;28;20499;-78
2023/10/05 00:32:47;;;;;;;13.10;5.35;;;;;;;11.79;100.00;101353.09;5070989;28;20123;-76
2023/10/05 00:35:24;;;;;;;16.45;5.53;;;;;;;11.83;100.00;101343.19;5076938;28;20064;-76
2023/10/05 00:38:11;;;;;;;15.27;5.97;;;;;;;11.80;100.00;101338.03;5065011;28;20048;-76
2023/10/05 00:40:47;;;;;;;12.23;5.43;;;;;;;11.78;100.00;101335.44;5074272;28;20064;-75
2023/10/05 00:43:23;;;;;;;10.48;5.30;;;;;;;11.74;100.00;101343.50;5075676;28;20102;-75
2023/10/05 00:45:53;;;;;;;13.38;5.30;;;;;;;11.79;100.00;101338.94;5043608;28;20544;-76
2023/10/05 00:48:29;;;;;;;14.35;5.70;;;;;;;11.81;100.00;101326.47;5041940;28;20052;-76
2023/10/05 00:51:00;;;;;;;12.30;4.70;;;;;;;11.76;100.00;101321.34;5090165;28;20452;-78
2023/10/05 00:53:35;;;;;;;10.05;5.00;;;;;;;11.77;100.00;101316.91;5084011;28;20480;-77
2023/10/05 00:56:12;;;;;;;14.27;5.10;;;;;;;11.82;100.00;101322.88;5091370;28;20029;-76
2023/10/05 00:58:44;;;;;;;11.93;5.10;;;;;;;11.80;100.00;101324.75;5075778;28;20068;-76
2023/10/05 01:01:22;;;;;;;12.60;5.38;;;;;;;11.78;100.00;101323.94;5075097;28;20463;-77
2023/10/05 01:04:18;;;;;;;13.52;4.75;;;;;;;11.79;100.00;101325.69;5074627;28;20052;-76
2023/10/05 01:06:55;;;;;;;13.20;5.25;;;;;;;11.71;100.00;101325.03;5090027;28;20096;-77
2023/10/05 01:09:55;;;;;;;12.48;5.00;;;;;;;11.65;100.00;101301.41;5079593;28;20059;-75
2023/10/05 01:12:37;;;;;;;13.00;5.32;;;;;;;11.78;100.00;101329.25;5090428;28;20044;-77
2023/10/05 01:15:14;;;;;;;11.77;4.97;;;;;;;11.70;100.00;101323.31;5071325;28;20124;-75
2023/10/05 01:17:50;;;;;;;11.52;5.03;;;;;;;11.69;100.00;101321.56;5093195;28;20039;-75
2023/10/05 01:20:26;;;;;;;11.02;4.95;;;;;;;11.57;100.00;101326.41;5075949;28;20056;-75
2023/10/05 01:22:57;;;;;;;13.55;5.63;;;;;;;11.55;100.00;101317.66;5072064;28;20151;-75
2023/10/05 01:25:27;;;;;;;;;;;;;;;11.54;100.00;101318.56;5093752;28;20036;-76
2023/10/05 01:28:00;;;;;;;13.57;5.30;;;;;;;11.56;100.00;101313.22;5090946;28;19924;-76
2023/10/05 01:30:29;;;;;;;15.52;5.68;;;;;;;11.56;100.00;101310.56;5095596;28;20055;-76
2023/10/05 01:32:57;;;;;;;11.98;5.13;;;;;;;11.55;100.00;101315.00;5095294;28;20047;-80
2023/10/05 01:35:26;;;;;;;11.43;5.47;;;;;;;11.47;100.00;101316.22;5060896;28;20051;-76
2023/10/05 01:37:53;;;;;;;11.95;6.22;;;;;;;11.37;100.00;101317.44;5085062;28;20048;-76
2023/10/05 01:40:30;;;;;;;13.38;5.82;;;;;;;11.37;100.00;101318.31;5078641;28;20066;-76
2023/10/05 01:43:00;;;;;;;15.45;6.30;;;;;;;11.21;100.00;101285.28;5077469;28;20101;-75
2023/10/05 01:45:33;;;;;;;15.27;5.60;;;;;;;11.35;100.00;101314.84;5091311;28;20040;-75
2023/10/05 01:48:07;;;;;;;16.23;5.75;;;;;;;11.33;100.00;101308.75;5102022;28;20075;-76
2023/10/05 01:50:36;;;;;;;11.70;5.43;;;;;;;11.31;100.00;101315.03;5081980;28;20048;-76
2023/10/05 01:53:17;;;;;;;17.08;6.30;;;;;;;11.22;100.00;101319.72;5061735;28;20127;-76
2023/10/05 01:55:50;;;;;;;14.82;6.07;;;;;;;11.15;100.00;101318.22;5086549;28;20044;-75
2023/10/05 01:58:31;;;;;;;12.50;5.85;;;;;;;11.11;100.00;101323.66;5068985;28;20052;-76
2023/10/05 02:00:59;;;;;;;15.45;5.30;;;;;;;11.13;100.00;101313.88;5103599;28;20092;-78
2023/10/05 02:03:28;;;;;;;11.25;5.55;;;;;;;11.24;100.00;101322.31;5078902;28;20075;-76
2023/10/05 02:06:03;;;;;;;11.73;5.20;;;;;;;11.21;100.00;101310.03;5096728;28;20067;-76
2023/10/05 02:08:33;;;;;;;13.48;6.13;;;;;;;11.36;100.00;101315.69;5078771;28;20144;-77
2023/10/05 02:11:04;;;;;;;11.97;5.43;;;;;;;11.41;100.00;101317.28;5098276;28;20056;-76
2023/10/05 02:13:35;;;;;;;13.35;5.60;;;;;;;11.44;100.00;101308.34;5056123;28;20301;-76
2023/10/05 02:16:06;;;;;;;14.15;5.78;;;;;;;11.36;100.00;101290.06;5072893;28;20496;-76
2023/10/05 02:18:38;;;;;;;11.77;5.07;;;;;;;11.35;100.00;101320.13;5076411;28;20036;-76
2023/10/05 02:21:17;;;;;;;15.45;5.53;;;;;;;11.35;100.00;101314.84;5075356;28;20040;-76
2023/10/05 02:23:51;;;;;;;11.98;5.03;;;;;;;11.41;100.00;101314.63;5085786;28;20060;-75
2023/10/05 02:26:32;;;;;;;13.63;5.47;;;;;;;11.40;100.00;101312.91;5075366;28;20573;-76
2023/10/05 02:29:13;;;;;;;;;;;;;;;11.41;100.00;101309.31;5074778;28;20062;-76
2023/10/05 02:31:54;;;;;;;13.55;5.60;;;;;;;11.39;100.00;101308.50;5084552;28;19987;-76
2023/10/05 02:34:29;;;;;;;21.88;5.85;;;;;;;11.39;100.00;101299.69;5065292;28;20040;-77
2023/10/05 02:37:00;;;;;;;15.90;6.35;;;;;;;11.42;100.00;101302.25;5085881;28;20045;-75
2023/10/05 02:39:32;;;;;;;15.82;5.80;;;;;;;11.48;100.00;101312.63;5077168;28;20055;-76
2023/10/05 02:42:03;;;;;;;12.38;5.13;;;;;;;11.48;100.00;101316.16;5089949;28;20087;-77
2023/10/05 02:44:39;;;;;;;12.88;6.18;;;;;;;11.37;100.00;101299.75;5054464;28;20083;-77
2023/10/05 02:47:10;;;;;;;17.05;6.10;;;;;;;11.43;100.00;101322.53;5072836;28;20040;-76
2023/10/05 02:49:44;;;;;;;13.70;6.20;;;;;;;11.29;100.00;101316.84;5073627;28;20040;-77
2023/10/05 02:52:15;;;;;;;12.15;5.97;;;;;;;11.25;100.00;101324.03;5073272;28;20496;-76
2023/10/05 02:54:47;;;;;;;15.93;5.90;;;;;;;11.18;100.00;101327.81;5056937;28;20045;-76
2023/10/05 02:57:20;;;;;;;15.25;5.63;;;;;;;11.05;100.00;101324.72;5088617;28;20048;-76
2023/10/05 02:59:50;;;;;;;12.98;5.40;;;;;;;11.01;100.00;101324.91;5057186;28;20452;-76
2023/10/05 03:02:23;;;;;;;15.25;7.00;;;;;;;10.91;100.00;101319.03;5074662;28;20047;-77
2023/10/05 03:04:58;;;;;;;12.07;5.60;;;;;;;10.95;100.00;101325.09;5071811;28;20041;-76
2023/10/05 03:07:31;;;;;;;15.00;6.10;;;;;;;11.05;100.00;101323.84;5077027;28;20043;-76
2023/10/05 03:10:02;;;;;;;14.75;6.15;;;;;;;11.13;100.00;101324.47;5059428;28;20412;-75
2023/10/05 03:12:35;;;;;;;16.98;5.97;;;;;;;11.11;100.00;101315.72;5071066;28;20044;-77
2023/10/05 03:15:13;;;;;;;15.30;6.50;;;;;;;11.16;100.00;101319.06;5073188;28;20044;-78
2023/10/05 03:17:48;;;;;;;16.20;5.82;;;;;;;11.14;100.00;101305.00;5076745;28;20480;-75
2023/10/05 03:20:21;;;;;;;14.43;6.32;;;;;;;11.29;100.00;101328.31;5055884;28;20093;-75
2023/10/05 03:22:54;;;;;;;11.55;5.72;;;;;;;11.15;100.00;101290.84;5075619;28;20032;-76
2023/10/05 03:25:25;;;;;;;14.75;6.00;;;;;;;11.36;100.00;101321.00;5101027;28;20115;-76
2023/10/05 03:27:56;;;;;;;13.98;5.53;;;;;;;11.37;100.00;101328.91;5072286;28;20101;-77
2023/10/05 03:30:30;;;;;;;12.85;5.95;;;;;;;11.38;100.00;101329.78;5067612;28;20056;-76
2023/10/05 03:33:01;;;;;;;13.35;6.28;;;;;;;11.38;100.00;101325.34;5089062;28;20059;-76
2023/10/05 03:35:32;;;;;;;13.32;5.78;;;;;;;11.40;100.00;101331.47;5073799;28;20487;-76
2023/10/05 03:38:03;;;;;;;;;;;;;;;11.38;100.00;101341.25;5065583;28;20064;-75
2023/10/05 03:40:36;;;;;;;16.80;5.95;;;;;;;11.28;100.00;101345.16;5036410;28;19933;-78
2023/10/05 03:43:05;;;;;;;15.23;6.82;;;;;;;11.21;100.00;101348.94;5055206;28;20075;-75
2023/10/05 03:45:39;;;;;;;14.82;6.38;;;;;;;11.23;100.00;101339.13;5052346;28;20048;-74
2023/10/05 03:48:10;;;;;;;15.70;6.38;;;;;;;11.27;100.00;101334.59;5040671;28;20144;-76
2023/10/05 03:50:39;;;;;;;15.15;6.13;;;;;;;11.19;100.00;101321.59;5057294;28;20064;-77
2023/10/05 03:53:09;;;;;;;12.95;6.18;;;;;;;11.29;100.00;101328.31;5056824;28;20045;-78
2023/10/05 03:55:46;;;;;;;13.65;6.25;;;;;;;11.30;100.00;101318.59;5048459;28;20604;-77
2023/10/05 03:58:16;;;;;;;14.43;6.70;;;;;;;11.32;100.00;101325.56;5036560;28;20121;-78
2023/10/05 04:00:50;;;;;;;15.18;6.63;;;;;;;11.32;100.00;101316.75;5045442;28;20036;-76
2023/10/05 04:03:24;;;;;;;17.83;6.80;;;;;;;11.27;100.00;101305.44;5056254;28;21955;-84
2023/10/05 04:05:58;;;;;;;19.58;6.72;;;;;;;11.38;100.00;101317.38;5054082;28;20040;-76
2023/10/05 04:08:31;;;;;;;14.27;6.70;;;;;;;11.30;100.00;101308.84;5057423;28;20207;-76
2023/10/05 04:10:59;;;;;;;15.15;7.28;;;;;;;11.35;100.00;101311.31;5074151;28;20052;-76
2023/10/05 04:13:32;;;;;;;17.00;7.25;;;;;;;11.34;100.00;101318.41;5047805;28;20045;-76
2023/10/05 04:16:12;;;;;;;18.52;7.32;;;;;;;11.39;100.00;101308.50;5020726;28;20512;-75
2023/10/05 04:18:43;;;;;;;20.52;7.15;;;;;;;11.33;100.00;101302.56;5053447;28;20052;-78
2023/10/05 04:21:16;;;;;;;16.02;7.45;;;;;;;11.42;100.00;101313.72;5069270;28;20410;-77
2023/10/05 04:23:46;;;;;;;16.55;7.28;;;;;;;11.45;100.00;101310.09;5052159;28;20053;-77
2023/10/05 04:26:14;;;;;;;18.75;7.50;;;;;;;11.34;100.00;101289.22;5054898;28;20041;-76
2023/10/05 04:28:52;;;;;;;15.07;7.55;;;;;;;11.46;100.00;101306.53;5036862;28;20044;-76
2023/10/05 04:31:25;;;;;;;17.63;6.50;;;;;;;11.50;100.00;101308.97;5051551;28;20059;-77
2023/10/05 04:33:55;;;;;;;16.38;7.45;;;;;;;11.36;100.00;101282.09;5066576;28;20053;-78
2023/10/05 04:36:24;;;;;;;16.13;7.07;;;;;;;11.49;100.00;101298.47;5054606;28;20045;-78
2023/10/05 04:38:54;;;;;;;15.77;7.50;;;;;;;11.43;100.00;101294.22;5057456;28;20052;-77
2023/10/05 04:41:28;;;;;;;16.25;7.20;;;;;;;11.48;100.00;101294.94;5075825;28;20055;-78
2023/10/05 04:43:57;;;;;;;18.70;7.80;;;;;;;11.48;100.00;101300.25;5074215;28;20052;-78
2023/10/05 04:46:28;;;;;;;17.27;7.57;;;;;;;11.49;100.00;101293.16;5056896;28;20052;-77
2023/10/05 04:49:07;;;;;;;16.05;7.50;;;;;;;11.45;100.00;101284.44;5072831;28;20044;-77
2023/10/05 04:51:38;;;;;;;16.05;6.75;;;;;;;11.37;100.00;101273.22;5073403;28;20067;-77
2023/10/05 04:54:10;;;;;;;18.35;7.90;;;;;;;11.44;100.00;101293.31;5087915;28;20037;-76
2023/10/05 04:56:53;;;;;;;18.38;7.75;;;;;;;11.37;100.00;101296.22;5056522;28;20044;-77
2023/10/05 04:59:36;;;;;;;15.57;7.03;;;;;;;11.19;100.00;101289.78;5056774;28;20129;-78
2023/10/05 05:02:21;;;;;;;19.45;8.10;;;;;;;11.15;100.00;101293.47;5072702;28;21113;-78
2023/10/05 05:05:32;;;;;;;19.35;8.07;;;;;;;11.09;100.00;101286.59;5074142;28;20136;-78
2023/10/05 05:08:01;;;;;;;16.58;8.43;;;;;;;11.05;100.00;101300.88;5090249;28;20091;-78
2023/10/05 05:10:31;;;;;;;17.20;7.90;;;;;;;11.00;100.00;101300.19;5073864;28;20076;-78
2023/10/05 05:13:00;;;;;;;19.88;8.25;;;;;;;10.96;100.00;101295.03;5078531;28;20040;-76
2023/10/05 05:15:29;;;;;;;17.95;7.82;;;;;;;10.94;100.00;101308.34;5075046;28;20048;-78
2023/10/05 05:18:00;;;;;;;20.08;8.10;;;;;;;10.88;100.00;101316.47;5073824;28;20040;-78
2023/10/05 05:20:32;;;;;;;16.67;8.45;;;;;;;10.85;100.00;101304.22;5087963;28;20496;-79
2023/10/05 05:23:04;;;;;;;17.13;7.88;;;;;;;10.74;100.00;101268.38;5081663;28;20507;-77
2023/10/05 05:25:37;;;;;;;15.43;7.95;;;;;;;10.98;100.00;101309.97;5054724;28;20055;-78
2023/10/05 05:28:09;;;;;;;20.02;8.13;;;;;;;11.07;100.00;101308.78;5073932;28;20044;-78
2023/10/05 05:30:39;;;;;;;15.68;7.55;;;;;;;11.11;100.00;101310.41;5074962;28;20528;-78
2023/10/05 05:33:10;;;;;;;18.45;8.38;;;;;;;10.98;100.00;101286.13;5081183;28;20040;-77
2023/10/05 05:35:39;;;;;;;15.73;7.63;;;;;;;11.03;100.00;101296.53;5065121;28;20090;-76
2023/10/05 05:38:09;;;;;;;16.45;7.80;;;;;;;11.23;100.00;101328.53;5067075;28;20094;-78
2023/10/05 05:40:40;;;;;;;18.92;8.70;;;;;;;11.25;100.00;101330.22;5069696;28;20044;-78
2023/10/05 05:43:12;;;;;;;16.13;8.10;;;;;;;11.23;100.00;101328.53;5054346;28;20055;-78
2023/10/05 05:45:43;;;;;;;16.70;8.05;;;;;;;11.22;100.00;101329.44;5069630;28;20060;-76
2023/10/05 05:48:17;;;;;;;16.58;7.85;;;;;;;11.29;100.00;101330.13;5067343;28;20065;-78
2023/10/05 05:50:46;;;;;;;16.70;8.07;;;;;;;11.32;100.00;101338.84;5068627;28;20122;-76
2023/10/05 05:53:15;;;;;;;25.38;7.88;;;;;;;11.37;100.00;101342.16;5073354;28;20102;-80
2023/10/05 05:55:44;;;;;;;15.57;7.18;;;;;;;11.38;100.00;101335.09;5053758;28;20131;-78
2023/10/05 05:58:14;;;;;;;12.98;7.25;;;;;;;11.39;100.00;101329.72;5072482;28;20045;-81
2023/10/05 06:00:46;;;;;;;16.65;7.40;;;;;;;11.35;100.00;101322.78;5074203;28;20048;-80
2023/10/05 06:03:16;;;;;;;18.15;8.23;;;;;;;11.39;100.00;101323.56;5069627;28;20051;-77
2023/10/05 06:05:48;;;;;;;18.50;7.72;;;;;;;11.55;100.00;101335.34;5068017;28;20432;-77
2023/10/05 06:08:18;;;;;;;18.63;8.15;;;;;;;11.52;100.00;101331.00;5059293;28;20071;-76
2023/10/05 06:10:47;;;;;;;18.00;8.38;;;;;;;11.52;100.00;101340.75;5083465;28;20054;-76
2023/10/05 06:13:19;;;;;;;15.18;7.70;;;;;;;11.25;100.00;101297.53;5045977;28;20052;-78
2023/10/05 06:15:48;;;;;;;18.50;8.20;;;;;;;11.49;100.00;101333.78;5071107;28;20037;-77
2023/10/05 06:18:16;;;;;;;16.20;8.05;;;;;;;11.49;100.00;101320.50;5077718;28;20195;-80
2023/10/05 06:20:48;;;;;;;16.33;8.73;;;;;;;11.55;100.00;101338.00;5070109;28;20090;-76
2023/10/05 06:23:20;;;;;;;20.35;8.57;;;;;;;11.51;100.00;101345.19;5080903;28;20036;-77
2023/10/05 06:25:51;;;;;;;17.83;8.23;;;;;;;11.37;100.00;101323.59;5072403;28;20465;-78
2023/10/05 06:28:22;;;;;;;19.88;8.20;;;;;;;11.43;100.00;101347.28;5086301;28;20080;-78
2023/10/05 06:30:52;;;;;;;18.80;8.50;;;;;;;11.42;100.00;101353.50;5050170;28;20531;-80
2023/10/05 06:33:21;;;;;;;;;;;;;;;11.38;100.00;101351.00;5055154;28;20049;-77
2023/10/05 06:35:51;;;;;;;15.50;8.00;;;;;;;11.35;100.00;101351.09;5067597;28;19978;-81
2023/10/05 06:38:20;;;;;;;16.85;8.13;;;;;;;11.36;100.00;101353.69;5084366;28;20817;-78
2023/10/05 06:40:51;;;;;;;20.20;8.50;;;;;;;11.44;100.00;101350.78;5068733;28;20044;-80
2023/10/05 06:43:21;;;;;;;17.27;7.97;;;;;;;11.69;100.00;101356.06;5073477;28;20056;-77
2023/10/05 06:46:08;;;;;;;17.10;7.78;;;;;;;11.74;100.00;101320.50;5078902;28;20059;-77
2023/10/05 06:48:40;;;;;;;16.58;7.72;;;;;;;12.03;100.00;101345.97;5084830;28;20520;-78
2023/10/05 06:51:14;;;;;;;17.77;7.47;;;;;;;12.19;100.00;101346.25;5074508;28;20044;-78
2023/10/05 06:53:43;;;;;;;17.50;8.60;;;;;;;12.22;100.00;101328.41;5069276;28;20132;-79
2023/10/05 06:56:11;;;;;;;18.48;8.27;;;;;;;12.35;100.00;101334.13;5072858;28;20045;-77
2023/10/05 06:58:41;;;;;;;16.55;7.85;;;;;;;12.40;100.00;101339.25;5074528;28;20140;-78
2023/10/05 07:01:09;;;;;;;15.07;7.55;;;;;;;12.42;100.00;101332.97;5062732;28;20397;-77
2023/10/05 07:03:39;;;;;;;16.10;7.60;;;;;;;12.47;100.00;101336.28;5076023;28;20112;-78
2023/10/05 07:06:13;;;;;;;;;;;;;;;12.51;100.00;101329.06;5058134;28;20370;-78
2023/10/05 07:08:41;;;;;;;16.55;7.45;;;;;;;12.46;100.00;101325.72;5077236;28;19920;-76
2023/10/05 07:11:13;;;;;;;17.60;7.63;;;;;;;12.41;100.00;101352.47;5075319;28;20045;-78
2023/10/05 07:13:43;;;;;;;20.45;9.07;;;;;;;12.34;100.00;101352.75;5071945;28;20115;-77
2023/10/05 07:16:11;;;;;;;15.40;7.30;;;;;;;12.27;100.00;101366.31;5072678;28;20110;-77
2023/10/05 07:18:57;;;;;;;17.58;8.55;;;;;;;12.12;100.00;101361.53;5076621;28;20416;-78
2023/10/05 07:21:32;;;;;;;21.55;8.20;;;;;;;12.07;100.00;101379.47;5079086;28;20117;-77
2023/10/05 07:24:04;;;;;;;16.13;8.25;;;;;;;12.03;100.00;101372.53;5074697;28;20063;-77
2023/10/05 07:26:33;;;;;;;21.23;8.20;;;;;;;12.18;100.00;101385.22;5074429;28;20049;-80
2023/10/05 07:29:04;;;;;;;18.52;8.52;;;;;;;12.27;100.00;101384.03;5073806;28;20482;-78
2023/10/05 07:31:47;;;;;;;19.85;9.32;;;;;;;12.29;100.00;101388.31;5075826;28;20110;-79
2023/10/05 07:34:20;;;;;;;15.48;7.72;;;;;;;12.35;100.00;101383.72;5078063;28;20476;-77
2023/10/05 07:36:54;;;;;;;25.08;9.50;;;;;;;12.45;100.00;101387.72;5078698;28;20048;-78
2023/10/05 07:39:24;;;;;;;18.33;8.10;;;;;;;12.35;100.00;101387.22;5063564;28;20048;-78
2023/10/05 07:42:08;;;;;;;19.17;7.90;;;;;;;12.28;100.00;101378.63;5089327;28;20039;-78
2023/10/05 07:44:37;;;;;;;28.45;10.18;;;;;;;12.27;100.00;101370.75;5084656;28;20052;-78
2023/10/05 07:47:09;;;;;;;17.00;7.70;;;;;;;12.64;100.00;101396.72;5096934;28;20055;-77
2023/10/05 07:49:55;;;;;;;17.23;7.55;;;;;;;12.70;100.00;101380.53;5080713;28;20108;-78
2023/10/05 07:52:27;;;;;;;17.45;8.02;;;;;;;12.74;100.00;101392.78;5075763;28;20052;-77
2023/10/05 07:54:58;;;;;;;19.05;8.25;;;;;;;12.59;100.00;101383.59;5089034;28;20055;-78
2023/10/05 07:57:29;;;;;;;15.30;7.63;;;;;;;12.61;100.00;101386.22;5093871;28;20052;-77
2023/10/05 08:00:00;;;;;;;21.77;7.97;;;;;;;12.84;100.00;101385.28;5074084;28;20082;-78
2023/10/05 08:02:40;;;;;;;19.80;8.47;;;;;;;13.05;100.00;101368.47;5095439;28;20108;-80
2023/10/05 08:05:11;;;;;;;13.30;6.45;;;;;;;13.50;100.00;101394.94;5073652;28;20040;-82
2023/10/05 08:07:44;;;;;;;17.70;7.65;;;;;;;13.67;100.00;101392.41;5073687;28;20040;-78
2023/10/05 08:10:15;;;;;;;16.23;6.57;;;;;;;13.85;100.00;101390.72;5057952;28;20051;-76
2023/10/05 08:12:44;;;;;;;16.80;6.10;;;;;;;14.12;100.00;101379.75;5060191;28;20405;-78
2023/10/05 08:15:18;;;;;;;15.50;6.35;;;;;;;14.28;100.00;101386.97;5059928;28;20109;-77
2023/10/05 08:17:50;;;;;;;16.48;6.55;;;;;;;14.28;100.00;101389.66;5074435;28;20071;-77
2023/10/05 08:20:20;;;;;;;13.68;6.72;;;;;;;14.31;100.00;101384.19;5065987;28;20425;-77
2023/10/05 08:22:59;;;;;;;15.25;6.65;;;;;;;14.18;100.00;101382.13;5073031;28;20459;-78
2023/10/05 08:25:28;;;;;;;15.75;8.05;;;;;;;14.09;100.00;101394.09;5070955;28;20040;-82
2023/10/05 08:28:00;;;;;;;15.60;6.43;;;;;;;14.04;100.00;101396.94;5094606;28;20044;-76
2023/10/05 08:30:45;;;;;;;16.80;7.00;;;;;;;13.99;100.00;101395.44;5083260;28;20040;-78
2023/10/05 08:33:19;;;;;;;12.43;6.88;;;;;;;13.85;100.00;101392.53;5079514;28;20044;-76
2023/10/05 08:35:48;;;;;;;20.42;7.82;;;;;;;13.83;100.00;101405.06;5074069;28;20130;-80
2023/10/05 08:38:24;;;;;;;17.85;7.85;;;;;;;13.81;100.00;101393.59;5075064;28;20520;-78
2023/10/05 08:40:52;;;;;;;16.52;6.30;;;;;;;13.75;100.00;101410.69;5089633;28;20140;-79
2023/10/05 08:43:21;;;;;;;17.85;7.18;;;;;;;13.70;100.00;101402.91;5076742;28;20044;-77
2023/10/05 08:45:51;;;;;;;19.63;7.75;;;;;;;13.75;100.00;101408.03;5065936;28;20940;-77
2023/10/05 08:48:28;;;;;;;19.33;7.82;;;;;;;13.86;100.00;101407.56;5064749;28;20048;-77
2023/10/05 08:51:04;;;;;;;18.45;7.50;;;;;;;14.00;100.00;101415.81;5079029;28;20036;-77
2023/10/05 08:53:41;;;;;;;18.70;6.93;;;;;;;13.92;100.00;101405.50;5058182;28;20033;-81
2023/10/05 08:56:13;;;;;;;13.40;7.03;;;;;;;13.92;100.00;101408.16;5075674;28;20052;-77
2023/10/05 08:58:45;;;;;;;19.50;7.63;;;;;;;14.03;100.00;101418.31;5078076;28;20384;-78
2023/10/05 09:01:24;;;;;;;22.15;7.57;;;;;;;14.12;100.00;101409.06;5076719;28;20093;-79
2023/10/05 09:04:11;;;;;;;15.27;7.20;;;;;;;14.33;100.00;101387.59;5078206;28;20078;-77
2023/10/05 09:06:48;;;;;;;16.35;7.03;;;;;;;14.73;100.00;101407.97;5071991;28;20970;-78
2023/10/05 09:09:38;;;;;;;16.88;6.95;;;;;;;14.98;100.00;101402.28;5078454;28;20040;-78
2023/10/05 09:12:32;;;;;;;15.53;7.00;;;;;;;15.19;100.00;101405.69;5077216;28;20081;-77
2023/10/05 09:15:10;;;;;;;15.68;7.32;;;;;;;15.31;100.00;101421.09;5075738;28;20044;-79
2023/10/05 09:17:57;;;;;;;12.63;6.50;;;;;;;15.42;100.00;101409.88;5094125;28;20036;-77
2023/10/05 09:20:30;;;;;;;13.65;6.50;;;;;;;15.48;100.00;101406.88;5103301;28;20067;-81
2023/10/05 09:23:03;;;;;;;17.45;7.25;;;;;;;15.33;100.00;101403.19;5095528;28;20066;-77
2023/10/05 09:25:37;;;;;;;14.38;6.35;;;;;;;15.40;100.00;101409.97;5085305;28;20290;-80
2023/10/05 09:28:13;;;;;;;16.73;6.57;;;;;;;15.46;100.00;101400.75;5068666;28;20040;-80
2023/10/05 09:30:49;;;;;;;16.17;6.70;;;;;;;15.60;100.00;101406.28;5085496;28;20093;-78
2023/10/05 09:33:21;;;;;;;17.50;6.13;;;;;;;15.55;100.00;101415.44;5067114;28;20065;-78
2023/10/05 09:35:49;;;;;;;14.23;5.93;;;;;;;15.49;100.00;101411.28;5073770;28;20337;-78
2023/10/05 09:38:19;;;;;;;24.90;6.10;;;;;;;15.43;100.00;101417.78;5082919;28;20150;-78
2023/10/05 09:40:49;;;;;;;13.40;6.05;;;;;;;15.44;100.00;101421.31;5081424;28;20067;-78
2023/10/05 09:43:20;;;;;;;15.88;5.70;;;;;;;15.45;100.00;101426.59;5066616;28;20052;-78
2023/10/05 09:45:56;;;;;;;15.40;6.30;;;;;;;15.29;100.00;101428.28;5083712;28;20106;-81
2023/10/05 09:48:26;;;;;;;15.65;6.82;;;;;;;15.43;100.00;101435.59;5086015;28;20048;-78
2023/10/05 09:50:59;;;;;;;15.82;5.72;;;;;;;15.56;100.00;101419.88;5084831;28;20051;-77
2023/10/05 09:53:28;;;;;;;16.20;6.25;;;;;;;15.76;100.00;101425.91;5090830;28;20070;-79
2023/10/05 09:55:59;;;;;;;15.05;6.80;;;;;;;15.73;100.00;101428.75;5086190;28;20075;-76
2023/10/05 09:58:29;;;;;;;13.38;5.97;;;;;;;15.51;100.00;101413.88;5094946;28;20074;-77
2023/10/05 10:00:59;;;;;;;14.88;6.60;;;;;;;15.54;100.00;101419.94;5072822;28;20081;-76
2023/10/05 10:03:31;;;;;;;13.13;5.88;;;;;;;15.68;100.00;101404.09;5076686;28;20048;-76
2023/10/05 10:06:09;;;;;;;;;;;;;;;16.06;100.00;101419.88;5078573;28;20074;-79
2023/10/05 10:08:51;;;;;;;11.30;5.75;;;;;;;16.28;100.00;101425.81;5056834;28;19924;-80
2023/10/05 10:11:24;;;;;;;16.02;5.97;;;;;;;16.38;100.00;101428.84;5079975;28;20439;-78
2023/10/05 10:13:59;;;;;;;12.50;6.05;;;;;;;16.36;100.00;101426.28;5097186;28;20052;-77
2023/10/05 10:16:28;;;;;;;17.67;6.85;;;;;;;16.25;100.00;101435.78;5094216;28;20047;-76
2023/10/05 10:19:04;;;;;;;;;;;;;;;16.00;100.00;101425.56;5084597;28;20372;-77
2023/10/05 10:21:42;;;;;;;15.75;6.20;;;;;;;16.06;100.00;101426.09;5055750;28;19928;-76
2023/10/05 10:24:17;;;;;;;14.95;6.03;;;;;;;16.00;100.00;101425.56;5070827;28;20047;-76
2023/10/05 10:26:52;;;;;;;12.38;5.25;;;;;;;15.94;100.00;101425.88;5083891;28;20404;-76
2023/10/05 10:29:42;;;;;;;16.40;6.18;;;;;;;16.09;100.00;101430.41;5091041;28;20400;-78
2023/10/05 10:32:18;;;;;;;15.93;6.00;;;;;;;16.23;100.00;101427.00;5075781;28;20050;-77
2023/10/05 10:34:55;;;;;;;13.13;5.90;;;;;;;16.42;100.00;101425.06;5081543;28;20117;-77
2023/10/05 10:37:43;;;;;;;16.65;5.72;;;;;;;16.64;100.00;101422.97;5076972;28;20135;-78
2023/10/05 10:40:25;;;;;;;14.38;5.13;;;;;;;16.67;100.00;101422.78;5074944;28;20055;-76
2023/10/05 10:43:06;;;;;;;15.18;5.20;;;;;;;16.49;100.00;101403.25;5054667;28;20078;-75
2023/10/05 10:45:41;;;;;;;17.17;5.22;;;;;;;16.53;100.00;101430.66;5062417;28;20036;-79
2023/10/05 10:48:14;;;;;;;12.98;5.53;;;;;;;16.37;100.00;101429.81;5070861;28;20079;-77
2023/10/05 10:50:45;;;;;;;14.35;5.30;;;;;;;16.41;100.00;101434.00;5099149;28;20051;-77
2023/10/05 10:53:17;;;;;;;19.27;6.20;;;;;;;16.33;100.00;101433.59;5089062;28;20069;-78
2023/10/05 10:55:52;;;;;;;14.90;5.35;;;;;;;16.27;100.00;101432.09;5070799;28;20040;-78
2023/10/05 10:58:27;;;;;;;10.45;4.25;;;;;;;16.30;100.00;101436.41;5074532;28;20121;-77
2023/10/05 11:00:59;;;;;;;16.67;4.75;;;;;;;16.19;100.00;101442.34;5073066;28;20040;-79
2023/10/05 11:03:30;;;;;;;11.82;4.18;;;;;;;16.22;100.00;101436.81;5080291;28;20044;-78
2023/10/05 11:05:58;;;;;;;;;;;;;;;16.28;100.00;101435.63;5060247;28;20048;-77
2023/10/05 11:08:32;;;;;;;12.90;4.50;;;;;;;16.20;100.00;101420.03;5061802;28;19931;-78
2023/10/05 11:11:09;;;;;;;14.45;4.38;;;;;;;16.24;100.00;101426.91;5080739;28;20089;-77
2023/10/05 11:13:45;;;;;;;13.38;5.57;;;;;;;16.33;100.00;101420.22;5079727;28;20052;-79
2023/10/05 11:16:16;;;;;;;13.43;4.03;;;;;;;16.35;100.00;101419.19;5072800;28;20048;-76
2023/10/05 11:18:57;;;;;;;11.60;3.92;;;;;;;16.39;100.00;101422.53;5077965;28;20074;-77
2023/10/05 11:21:35;;;;;;;12.45;4.35;;;;;;;16.44;100.00;101418.69;5088439;28;20040;-77
2023/10/05 11:24:07;;;;;;;13.93;5.20;;;;;;;16.36;100.00;101420.94;5082780;28;20041;-80
2023/10/05 11:27:05;;;;;;;12.02;4.57;;;;;;;16.44;100.00;101420.50;5068259;28;20211;-77
2023/10/05 11:29:48;;;;;;;15.30;5.38;;;;;;;16.48;100.00;101422.91;5068756;28;20052;-81
2023/10/05 11:32:32;;;;;;;14.50;4.50;;;;;;;16.46;100.00;101399.88;5090792;28;20048;-78
2023/10/05 11:35:28;;;;;;;13.40;4.18;;;;;;;16.57;100.00;101396.59;5074006;28;20137;-79
2023/10/05 11:38:03;;;;;;;11.10;4.63;;;;;;;16.75;100.00;101417.00;5055943;28;20390;-77
2023/10/05 11:40:49;;;;;;;8.88;3.95;;;;;;;16.93;100.00;101415.97;5094746;28;20101;-77
2023/10/05 11:43:18;;;;;;;13.20;3.65;;;;;;;17.13;100.00;101398.75;5100237;28;20047;-78